Time;durP1;ratioP1;P1;durP2;ratioP2;P2;SDS_P1;SDS_P2;PMS_P1;PMS_P2;Temp;Humidity;BMP_temperature;BMP_pressure;BME280_temperature;BME280_humidity;BME280_pressure;Samples;Min_cycle;Max_cycle;Signal;HPM_P1;HPM_P2
2022/04/13 00:00:47;;;;;;;14.23;6.28;;;;;;;;;;5053884;28;20041;-72
2022/04/13 00:03:32;;;;;;;14.45;6.00;;;;;;;;;;5053803;28;20505;-71
2022/04/13 00:06:16;;;;;;;12.60;6.28;;;;;;;;;;5053323;28;20439;-70
2022/04/13 00:09:01;;;;;;;12.20;5.47;;;;;;;;;;5052399;28;20431;-73
2022/04/13 00:11:45;;;;;;;15.70;6.72;;;;;;;;;;5038498;28;20041;-71
2022/04/13 00:14:31;;;;;;;16.15;7.18;;;;;;;;;;5052070;28;20049;-73
2022/04/13 00:17:15;;;;;;;15.85;7.13;;;;;;;;;;5037793;28;20053;-73
2022/04/13 00:19:59;;;;;;;15.48;6.65;;;;;;;;;;5052238;28;20045;-73
2022/04/13 00:22:44;;;;;;;15.15;6.97;;;;;;;;;;5052024;28;20044;-71
2022/04/13 00:25:30;;;;;;;11.30;5.38;;;;;;;;;;5052164;28;20052;-71
2022/04/13 00:28:14;;;;;;;13.77;7.22;;;;;;;;;;5053085;28;20116;-73
2022/04/13 00:30:59;;;;;;;14.63;6.15;;;;;;;;;;5053043;28;20045;-73
2022/04/13 00:33:43;;;;;;;16.65;6.55;;;;;;;;;;5052023;28;20499;-72
2022/04/13 00:36:28;;;;;;;14.55;6.55;;;;;;;;;;5038351;28;20048;-71
2022/04/13 00:39:12;;;;;;;18.65;7.55;;;;;;;;;;5052631;28;20087;-71
2022/04/13 00:41:57;;;;;;;15.30;6.60;;;;;;;;;;5052873;28;20441;-71
2022/04/13 00:44:41;;;;;;;13.32;6.55;;;;;;;;;;5037894;28;20127;-73
2022/04/13 00:47:26;;;;;;;16.98;6.57;;;;;;;;;;5051438;28;20053;-72
2022/04/13 00:50:10;;;;;;;15.52;6.70;;;;;;;;;;5052588;28;20051;-69
2022/04/13 00:52:58;;;;;;;12.07;5.32;;;;;;;;;;5051423;28;20040;-73
2022/04/13 00:55:43;;;;;;;12.18;6.05;;;;;;;;;;5051979;28;20048;-73
2022/04/13 00:58:29;;;;;;;16.20;6.70;;;;;;;;;;5047082;28;20480;-70
2022/04/13 01:01:15;;;;;;;11.88;5.85;;;;;;;;;;5032516;28;20077;-72
2022/04/13 01:04:02;;;;;;;15.35;6.20;;;;;;;;;;5043938;28;20040;-70
2022/04/13 01:06:47;;;;;;;12.48;6.18;;;;;;;;;;5052651;28;20045;-71
2022/04/13 01:09:33;;;;;;;14.68;6.40;;;;;;;;;;5052268;28;20049;-70
2022/04/13 01:12:18;;;;;;;15.30;6.32;;;;;;;;;;5052346;28;20040;-70
2022/04/13 01:15:03;;;;;;;12.35;5.68;;;;;;;;;;5052620;28;20053;-73
2022/04/13 01:17:48;;;;;;;15.57;6.65;;;;;;;;;;5050965;28;20064;-72
2022/04/13 01:20:35;;;;;;;14.63;5.97;;;;;;;;;;5051419;28;20102;-71
2022/04/13 01:23:22;;;;;;;15.57;5.93;;;;;;;;;;5052130;28;20052;-71
2022/04/13 01:26:08;;;;;;;12.43;5.30;;;;;;;;;;5037882;28;20056;-72
2022/04/13 01:28:52;;;;;;;12.90;6.00;;;;;;;;;;5052725;28;20072;-71
2022/04/13 01:31:36;;;;;;;14.52;6.22;;;;;;;;;;5054088;28;20049;-71
2022/04/13 01:34:21;;;;;;;12.00;6.05;;;;;;;;;;5052613;28;20051;-70
2022/04/13 01:37:07;;;;;;;11.85;5.63;;;;;;;;;;5052557;28;20128;-69
2022/04/13 01:39:52;;;;;;;13.75;6.22;;;;;;;;;;5052321;28;20107;-70
2022/04/13 01:42:47;;;;;;;14.52;6.28;;;;;;;;;;5051432;28;20124;-70
2022/04/13 01:45:31;;;;;;;13.43;5.63;;;;;;;;;;5052507;28;20041;-70
2022/04/13 01:48:16;;;;;;;12.68;5.32;;;;;;;;;;5054245;28;20041;-73
2022/04/13 01:51:01;;;;;;;13.25;5.88;;;;;;;;;;5052529;28;20037;-65
2022/04/13 01:53:45;;;;;;;14.48;5.93;;;;;;;;;;5052483;28;20041;-71
2022/04/13 01:56:30;;;;;;;13.95;6.45;;;;;;;;;;5037175;28;20037;-71
2022/04/13 01:59:15;;;;;;;14.80;6.30;;;;;;;;;;5050981;28;20087;-72
2022/04/13 02:01:59;;;;;;;13.27;6.22;;;;;;;;;;5054899;28;20068;-71
2022/04/13 02:04:43;;;;;;;11.13;5.28;;;;;;;;;;5055851;28;20048;-71
2022/04/13 02:07:28;;;;;;;13.88;5.05;;;;;;;;;;5055842;28;20037;-70
2022/04/13 02:10:13;;;;;;;14.15;5.88;;;;;;;;;;5040823;28;20484;-72
2022/04/13 02:12:57;;;;;;;14.90;5.82;;;;;;;;;;5056135;28;20094;-72
2022/04/13 02:15:42;;;;;;;13.88;5.18;;;;;;;;;;5041208;28;20522;-71
2022/04/13 02:18:27;;;;;;;11.45;5.72;;;;;;;;;;5054773;28;20492;-71
2022/04/13 02:21:11;;;;;;;12.30;5.78;;;;;;;;;;5066704;28;20060;-71
2022/04/13 02:23:56;;;;;;;9.45;5.07;;;;;;;;;;5057886;28;20123;-73
2022/04/13 02:26:41;;;;;;;9.13;5.13;;;;;;;;;;5055246;28;20052;-71
2022/04/13 02:29:25;;;;;;;11.27;5.25;;;;;;;;;;5055612;28;20045;-71
2022/04/13 02:32:10;;;;;;;11.18;5.25;;;;;;;;;;5055618;28;20421;-74
2022/04/13 02:34:55;;;;;;;12.77;5.57;;;;;;;;;;5055569;28;20053;-72
2022/04/13 02:37:40;;;;;;;13.05;5.40;;;;;;;;;;5055243;28;20041;-74
2022/04/13 02:40:25;;;;;;;13.13;5.95;;;;;;;;;;5054627;28;20056;-70
2022/04/13 02:43:10;;;;;;;13.40;5.50;;;;;;;;;;5055247;28;20041;-74
2022/04/13 02:45:57;;;;;;;12.23;5.28;;;;;;;;;;5054958;28;20510;-74
2022/04/13 02:48:41;;;;;;;10.82;4.72;;;;;;;;;;5054962;28;20739;-74
2022/04/13 02:51:26;;;;;;;8.82;4.65;;;;;;;;;;5054806;28;20499;-70
2022/04/13 02:54:11;;;;;;;12.07;5.45;;;;;;;;;;5054874;28;20041;-71
2022/04/13 02:56:56;;;;;;;10.63;5.43;;;;;;;;;;5054993;28;20041;-73
2022/04/13 02:59:42;;;;;;;11.90;5.30;;;;;;;;;;5054420;28;20041;-72
2022/04/13 03:02:29;;;;;;;9.50;4.78;;;;;;;;;;5053771;28;20045;-70
2022/04/13 03:05:14;;;;;;;11.63;5.32;;;;;;;;;;5053797;28;20048;-72
2022/04/13 03:07:58;;;;;;;12.77;4.95;;;;;;;;;;5053903;28;20057;-72
2022/04/13 03:10:43;;;;;;;10.93;5.75;;;;;;;;;;5054150;28;20071;-72
2022/04/13 03:13:28;;;;;;;12.05;5.78;;;;;;;;;;5054305;28;20111;-70
2022/04/13 03:16:12;;;;;;;10.43;4.90;;;;;;;;;;5054596;28;20511;-71
2022/04/13 03:18:57;;;;;;;11.68;5.07;;;;;;;;;;5053725;28;20068;-72
2022/04/13 03:21:42;;;;;;;12.98;5.70;;;;;;;;;;5055270;28;20041;-72
2022/04/13 03:24:26;;;;;;;10.05;5.47;;;;;;;;;;5056928;28;20041;-73
2022/04/13 03:27:11;;;;;;;11.13;5.95;;;;;;;;;;5055736;28;20442;-73
2022/04/13 03:29:56;;;;;;;10.50;5.38;;;;;;;;;;5057024;28;20128;-71
2022/04/13 03:32:40;;;;;;;11.25;5.15;;;;;;;;;;5054858;28;20045;-72
2022/04/13 03:35:25;;;;;;;13.73;5.55;;;;;;;;;;5054332;28;20037;-72
2022/04/13 03:38:10;;;;;;;9.60;4.88;;;;;;;;;;5054375;28;20049;-73
2022/04/13 03:40:55;;;;;;;11.52;4.90;;;;;;;;;;5053039;28;20060;-73
2022/04/13 03:43:40;;;;;;;11.02;5.25;;;;;;;;;;5052795;28;20052;-71
2022/04/13 03:46:25;;;;;;;11.75;5.57;;;;;;;;;;5038896;28;20037;-72
2022/04/13 03:49:09;;;;;;;11.70;5.90;;;;;;;;;;5054020;28;20049;-65
2022/04/13 03:51:54;;;;;;;11.50;5.53;;;;;;;;;;5052655;28;20435;-72
2022/04/13 03:54:40;;;;;;;11.07;6.05;;;;;;;;;;5039065;28;20396;-73
2022/04/13 03:57:24;;;;;;;10.63;4.93;;;;;;;;;;5053404;28;20064;-72
2022/04/13 04:00:09;;;;;;;11.88;5.53;;;;;;;;;;5041644;28;20083;-72
2022/04/13 04:02:57;;;;;;;12.93;5.85;;;;;;;;;;5041890;28;20062;-70
2022/04/13 04:05:41;;;;;;;11.27;4.88;;;;;;;;;;5031317;28;20495;-72
2022/04/13 04:08:27;;;;;;;11.45;5.47;;;;;;;;;;5043709;28;20090;-72
2022/04/13 04:11:12;;;;;;;9.77;5.30;;;;;;;;;;5038031;28;20041;-69
2022/04/13 04:13:57;;;;;;;9.95;5.10;;;;;;;;;;5045659;28;20040;-71
2022/04/13 04:16:41;;;;;;;8.93;4.78;;;;;;;;;;5046539;28;20489;-74
2022/04/13 04:19:26;;;;;;;8.55;5.05;;;;;;;;;;5037788;28;20107;-73
2022/04/13 04:22:12;;;;;;;12.30;5.03;;;;;;;;;;5050601;28;20075;-69
2022/04/13 04:25:01;;;;;;;11.05;4.68;;;;;;;;;;5041042;28;20619;-71
2022/04/13 04:27:45;;;;;;;9.27;4.80;;;;;;;;;;5051838;28;20048;-70
2022/04/13 04:30:31;;;;;;;11.90;5.25;;;;;;;;;;5052971;28;20049;-70
2022/04/13 04:33:16;;;;;;;11.82;5.07;;;;;;;;;;5066077;28;20439;-72
2022/04/13 04:36:01;;;;;;;13.13;4.97;;;;;;;;;;5066448;28;20037;-71
2022/04/13 04:38:45;;;;;;;10.40;4.60;;;;;;;;;;5050633;28;20071;-73
2022/04/13 04:41:30;;;;;;;9.75;4.88;;;;;;;;;;5048377;28;20048;-71
2022/04/13 04:44:14;;;;;;;9.38;4.90;;;;;;;;;;5017707;28;20443;-71
2022/04/13 04:46:59;;;;;;;11.15;5.43;;;;;;;;;;5040712;28;20037;-71
2022/04/13 04:49:44;;;;;;;9.45;4.90;;;;;;;;;;5051290;28;20041;-71
2022/04/13 04:52:28;;;;;;;8.02;4.38;;;;;;;;;;5050467;28;20103;-72
2022/04/13 04:55:14;;;;;;;9.70;4.65;;;;;;;;;;5052663;28;20045;-72
2022/04/13 04:57:58;;;;;;;9.93;5.13;;;;;;;;;;5052135;28;20056;-72
2022/04/13 05:00:43;;;;;;;8.77;5.25;;;;;;;;;;5054875;28;20037;-73
2022/04/13 05:03:28;;;;;;;11.20;5.18;;;;;;;;;;5037812;28;20048;-73
2022/04/13 05:06:13;;;;;;;9.30;4.30;;;;;;;;;;5052895;28;20045;-70
2022/04/13 05:08:57;;;;;;;10.77;4.55;;;;;;;;;;5037401;28;20049;-69
2022/04/13 05:11:42;;;;;;;10.13;5.05;;;;;;;;;;5052336;28;20060;-67
2022/04/13 05:14:29;;;;;;;12.18;4.95;;;;;;;;;;5052694;28;20135;-70
2022/04/13 05:17:14;;;;;;;9.73;5.43;;;;;;;;;;5051559;28;20060;-69
2022/04/13 05:19:58;;;;;;;10.15;4.85;;;;;;;;;;5052332;28;20099;-59
2022/04/13 05:22:43;;;;;;;8.95;4.18;;;;;;;;;;5051081;28;20480;-67
2022/04/13 05:25:28;;;;;;;8.02;4.40;;;;;;;;;;5050252;28;20037;-67
2022/04/13 05:28:12;;;;;;;13.00;5.00;;;;;;;;;;5069971;28;20110;-67
2022/04/13 05:30:57;;;;;;;9.38;4.57;;;;;;;;;;5051217;28;20043;-65
2022/04/13 05:33:41;;;;;;;10.50;4.82;;;;;;;;;;5051827;28;20045;-68
2022/04/13 05:36:26;;;;;;;9.25;4.40;;;;;;;;;;5055024;28;20041;-67
2022/04/13 05:39:11;;;;;;;9.75;4.90;;;;;;;;;;5041196;28;20044;-67
2022/04/13 05:41:56;;;;;;;14.40;4.85;;;;;;;;;;5055992;28;20141;-69
2022/04/13 05:44:41;;;;;;;13.20;5.00;;;;;;;;;;5056094;28;20431;-53
2022/04/13 05:47:26;;;;;;;12.02;5.63;;;;;;;;;;5083693;28;20053;-56
2022/04/13 05:50:11;;;;;;;11.25;5.10;;;;;;;;;;5055100;28;20049;-57
2022/04/13 05:52:55;;;;;;;8.57;4.60;;;;;;;;;;5055743;28;20045;-51
2022/04/13 05:55:40;;;;;;;9.38;5.13;;;;;;;;;;5055692;28;20045;-52
2022/04/13 05:58:25;;;;;;;11.50;5.20;;;;;;;;;;5055861;28;20048;-51
2022/04/13 06:01:10;;;;;;;12.70;5.68;;;;;;;;;;5083034;28;20041;-49
2022/04/13 06:03:54;;;;;;;11.98;5.45;;;;;;;;;;5055774;28;20041;-51
2022/04/13 06:06:39;;;;;;;11.50;5.25;;;;;;;;;;5055305;28;20041;-53
2022/04/13 06:09:23;;;;;;;10.68;5.63;;;;;;;;;;5055625;28;20048;-48
2022/04/13 06:12:08;;;;;;;9.57;5.25;;;;;;;;;;5049278;28;20095;-49
2022/04/13 06:14:59;;;;;;;10.90;5.80;;;;;;;;;;5044455;28;20091;-52
2022/04/13 06:17:45;;;;;;;9.00;4.93;;;;;;;;;;5035379;28;20058;-52
2022/04/13 06:20:29;;;;;;;11.13;5.35;;;;;;;;;;5040602;28;20037;-56
2022/04/13 06:23:14;;;;;;;15.05;6.07;;;;;;;;;;5055232;28;20041;-57
2022/04/13 06:25:59;;;;;;;10.05;5.13;;;;;;;;;;5055497;28;20056;-51
2022/04/13 06:28:44;;;;;;;9.80;4.95;;;;;;;;;;5055807;28;20056;-55
2022/04/13 06:31:28;;;;;;;10.45;4.53;;;;;;;;;;5055264;28;20048;-55
2022/04/13 06:34:13;;;;;;;12.00;5.18;;;;;;;;;;5045278;28;20119;-57
2022/04/13 06:36:57;;;;;;;13.30;5.38;;;;;;;;;;5050276;28;20044;-53
2022/04/13 06:39:42;;;;;;;11.32;4.60;;;;;;;;;;5051416;28;20258;-58
2022/04/13 06:42:27;;;;;;;10.43;4.60;;;;;;;;;;5044168;28;20511;-55
2022/04/13 06:45:13;;;;;;;11.98;4.70;;;;;;;;;;5050611;28;20040;-59
2022/04/13 06:47:57;;;;;;;10.25;4.40;;;;;;;;;;5052243;28;20041;-60
2022/04/13 06:50:42;;;;;;;10.32;4.88;;;;;;;;;;5041250;28;20102;-57
2022/04/13 06:53:26;;;;;;;13.00;4.72;;;;;;;;;;5054631;28;20438;-58
2022/04/13 06:56:11;;;;;;;9.27;5.10;;;;;;;;;;5051226;28;20037;-58
2022/04/13 06:58:55;;;;;;;10.27;4.57;;;;;;;;;;5054001;28;20492;-59
2022/04/13 07:01:40;;;;;;;8.80;4.70;;;;;;;;;;5054722;28;20041;-63
2022/04/13 07:04:24;;;;;;;11.40;4.70;;;;;;;;;;5034850;28;20049;-64
2022/04/13 07:07:09;;;;;;;8.77;4.72;;;;;;;;;;5040662;28;20060;-59
2022/04/13 07:09:53;;;;;;;9.57;4.57;;;;;;;;;;5053287;28;20454;-60
2022/04/13 07:12:39;;;;;;;9.30;4.22;;;;;;;;;;5052691;28;20522;-61
2022/04/13 07:15:24;;;;;;;8.38;4.43;;;;;;;;;;5050889;28;20045;-62
2022/04/13 07:18:09;;;;;;;10.32;5.88;;;;;;;;;;5051507;28;20080;-63
2022/04/13 07:20:54;;;;;;;10.05;4.88;;;;;;;;;;5051668;28;20072;-40
2022/04/13 07:23:38;;;;;;;14.25;5.13;;;;;;;;;;5054234;28;20502;-59
2022/04/13 07:26:22;;;;;;;9.23;4.25;;;;;;;;;;5054337;28;20166;-54
2022/04/13 07:29:07;;;;;;;8.30;4.47;;;;;;;;;;5053265;28;20055;-57
2022/04/13 07:31:52;;;;;;;8.98;4.50;;;;;;;;;;5052946;28;20068;-56
2022/04/13 07:34:37;;;;;;;10.57;5.05;;;;;;;;;;5050352;28;20395;-58
2022/04/13 07:37:21;;;;;;;11.30;5.13;;;;;;;;;;5054012;28;20120;-60
2022/04/13 07:40:07;;;;;;;10.18;5.97;;;;;;;;;;5038394;28;20037;-63
2022/04/13 07:42:52;;;;;;;7.97;3.55;;;;;;;;;;5038425;28;20481;-61
2022/04/13 07:45:36;;;;;;;9.63;4.90;;;;;;;;;;5053818;28;20049;-55
2022/04/13 07:48:20;;;;;;;8.32;4.45;;;;;;;;;;5053647;28;20543;-59
2022/04/13 07:51:05;;;;;;;10.60;4.25;;;;;;;;;;5053454;28;20055;-59
2022/04/13 07:53:50;;;;;;;11.77;4.32;;;;;;;;;;5053530;28;20115;-59
2022/04/13 07:56:35;;;;;;;8.48;4.50;;;;;;;;;;5052256;28;20094;-56
2022/04/13 07:59:20;;;;;;;8.82;4.35;;;;;;;;;;5048695;28;20427;-58
2022/04/13 08:02:04;;;;;;;9.93;4.57;;;;;;;;;;5050116;28;20037;-56
2022/04/13 08:04:49;;;;;;;12.20;4.18;;;;;;;;;;5050122;28;20072;-53
2022/04/13 08:07:34;;;;;;;11.05;4.50;;;;;;;;;;5052328;28;20118;-56
2022/04/13 08:10:18;;;;;;;10.32;4.80;;;;;;;;;;5052725;28;20051;-58
2022/04/13 08:13:03;;;;;;;10.52;4.63;;;;;;;;;;5053102;28;20045;-53
2022/04/13 08:15:47;;;;;;;9.10;4.53;;;;;;;;;;5051605;28;20042;-58
2022/04/13 08:18:32;;;;;;;8.77;4.47;;;;;;;;;;5052575;28;20395;-58
2022/04/13 08:21:16;;;;;;;10.10;4.15;;;;;;;;;;5051828;28;20484;-58
2022/04/13 08:24:01;;;;;;;8.07;4.65;;;;;;;;;;5052873;28;20076;-59
2022/04/13 08:26:45;;;;;;;10.70;4.43;;;;;;;;;;5053060;28;20068;-59
2022/04/13 08:29:29;;;;;;;9.43;4.47;;;;;;;;;;5052382;28;20049;-59
2022/04/13 08:32:18;;;;;;;9.20;4.32;;;;;;;;;;5052952;28;20045;-56
2022/04/13 08:35:05;;;;;;;9.05;3.83;;;;;;;;;;5037545;28;20396;-58
2022/04/13 08:37:49;;;;;;;9.27;4.03;;;;;;;;;;5052347;28;20041;-58
2022/04/13 08:40:38;;;;;;;8.63;4.32;;;;;;;;;;5043920;28;20488;-58
2022/04/13 08:43:26;;;;;;;10.48;4.72;;;;;;;;;;5032921;28;20416;-61
2022/04/13 08:46:13;;;;;;;8.35;4.00;;;;;;;;;;5030174;28;20531;-56
2022/04/13 08:48:59;;;;;;;9.75;4.18;;;;;;;;;;5052477;28;20055;-55
2022/04/13 08:51:45;;;;;;;7.07;3.80;;;;;;;;;;5052458;28;20041;-55
2022/04/13 08:54:31;;;;;;;8.88;4.30;;;;;;;;;;5052845;28;20037;-52
2022/04/13 08:57:17;;;;;;;12.05;4.30;;;;;;;;;;5050336;28;20437;-56
2022/04/13 09:00:04;;;;;;;9.13;4.03;;;;;;;;;;5052261;28;20041;-56
2022/04/13 09:02:53;;;;;;;8.77;4.18;;;;;;;;;;5051224;28;20036;-53
2022/04/13 09:05:38;;;;;;;7.53;4.72;;;;;;;;;;5052452;28;20453;-48
2022/04/13 09:08:25;;;;;;;10.98;4.40;;;;;;;;;;5052093;28;20410;-37
2022/04/13 09:11:10;;;;;;;8.18;3.78;;;;;;;;;;5051412;28;20057;-55
2022/04/13 09:13:55;;;;;;;10.68;4.07;;;;;;;;;;5050395;28;20041;-54
2022/04/13 09:16:41;;;;;;;8.20;4.00;;;;;;;;;;5051217;28;20091;-54
2022/04/13 09:19:26;;;;;;;11.82;4.13;;;;;;;;;;5050113;28;20049;-55
2022/04/13 09:22:15;;;;;;;12.23;4.07;;;;;;;;;;5050329;28;20041;-53
2022/04/13 09:25:00;;;;;;;7.97;3.92;;;;;;;;;;5050832;28;20041;-49
2022/04/13 09:27:45;;;;;;;7.13;3.78;;;;;;;;;;5051251;28;20051;-49
2022/04/13 09:30:31;;;;;;;7.57;3.88;;;;;;;;;;5052225;28;20492;-50
2022/04/13 09:33:15;;;;;;;9.82;3.47;;;;;;;;;;5048021;28;20065;-49
2022/04/13 09:36:00;;;;;;;9.45;4.25;;;;;;;;;;5049434;28;20041;-49
2022/04/13 09:38:45;;;;;;;10.55;3.83;;;;;;;;;;5049384;28;20091;-49
2022/04/13 09:41:38;;;;;;;9.88;3.97;;;;;;;;;;5049219;28;20048;-51
2022/04/13 09:44:22;;;;;;;9.70;4.60;;;;;;;;;;5050660;28;20053;-49
2022/04/13 09:47:11;;;;;;;12.10;4.22;;;;;;;;;;5050438;28;20100;-49
2022/04/13 09:49:56;;;;;;;6.00;3.30;;;;;;;;;;5042446;28;20044;-52
2022/04/13 09:52:41;;;;;;;8.73;2.97;;;;;;;;;;5048607;28;20045;-52
2022/04/13 09:55:26;;;;;;;9.23;3.53;;;;;;;;;;5042381;28;20128;-47
2022/04/13 09:58:12;;;;;;;9.27;4.05;;;;;;;;;;5050725;28;20041;-58
2022/04/13 10:01:00;;;;;;;7.90;3.22;;;;;;;;;;5051211;28;20044;-46
2022/04/13 10:03:55;;;;;;;9.20;3.63;;;;;;;;;;5049917;28;20033;-49
2022/04/13 10:06:39;;;;;;;8.88;4.13;;;;;;;;;;5050504;28;20041;-47
2022/04/13 10:09:24;;;;;;;8.45;3.65;;;;;;;;;;5047606;28;20457;-54
2022/04/13 10:12:09;;;;;;;8.88;3.85;;;;;;;;;;5050851;28;20484;-47
2022/04/13 10:15:06;;;;;;;9.88;3.92;;;;;;;;;;5051602;28;20049;-51
2022/04/13 10:17:56;;;;;;;8.30;4.28;;;;;;;;;;5069033;28;20416;-47
2022/04/13 10:20:45;;;;;;;8.60;3.65;;;;;;;;;;5050436;28;20048;-48
2022/04/13 10:23:39;;;;;;;10.15;4.30;;;;;;;;;;5054306;28;20534;-51
2022/04/13 10:26:27;;;;;;;12.25;3.97;;;;;;;;;;5055252;28;20341;-48
2022/04/13 10:29:17;;;;;;;11.13;4.28;;;;;;;;;;5068287;28;20400;-51
2022/04/13 10:32:08;;;;;;;10.20;4.30;;;;;;;;;;5054647;28;20045;-47
2022/04/13 10:34:55;;;;;;;6.60;3.83;;;;;;;;;;5054827;28;20045;-48
2022/04/13 10:37:42;;;;;;;18.00;4.32;;;;;;;;;;5054041;28;20041;-52
2022/04/13 10:40:29;;;;;;;7.80;3.65;;;;;;;;;;5043362;28;20546;-51
2022/04/13 10:43:13;;;;;;;10.10;4.45;;;;;;;;;;5054470;28;20052;-51
2022/04/13 10:45:58;;;;;;;12.02;4.05;;;;;;;;;;5054796;28;20076;-47
2022/04/13 10:48:43;;;;;;;8.77;3.80;;;;;;;;;;5053205;28;20503;-50
2022/04/13 10:51:29;;;;;;;8.02;4.07;;;;;;;;;;5054072;28;20442;-49
2022/04/13 10:54:16;;;;;;;10.30;4.50;;;;;;;;;;5054233;28;20060;-48
2022/04/13 10:57:02;;;;;;;8.63;4.00;;;;;;;;;;5053204;28;20041;-49
2022/04/13 10:59:50;;;;;;;9.65;4.22;;;;;;;;;;5054277;28;20049;-51
2022/04/13 11:02:43;;;;;;;8.35;3.28;;;;;;;;;;5054113;28;20045;-50
2022/04/13 11:05:28;;;;;;;8.30;3.47;;;;;;;;;;5053073;28;20037;-53
2022/04/13 11:08:16;;;;;;;9.20;4.05;;;;;;;;;;5054380;28;20048;-40
2022/04/13 11:11:01;;;;;;;7.22;3.38;;;;;;;;;;5048651;28;20080;-44
2022/04/13 11:13:46;;;;;;;7.57;3.58;;;;;;;;;;5051639;28;20048;-50
2022/04/13 11:16:31;;;;;;;8.50;2.92;;;;;;;;;;5047425;28;20045;-51
2022/04/13 11:19:15;;;;;;;6.60;3.25;;;;;;;;;;5037045;28;20095;-50
2022/04/13 11:22:00;;;;;;;8.25;3.20;;;;;;;;;;5052302;28;20056;-52
2022/04/13 11:24:48;;;;;;;7.88;3.45;;;;;;;;;;5053875;28;20117;-54
2022/04/13 11:27:49;;;;;;;10.77;3.63;;;;;;;;;;5049092;28;20404;-47
2022/04/13 11:30:53;;;;;;;6.05;3.00;;;;;;;;;;5053844;28;20111;-53
2022/04/13 11:33:55;;;;;;;7.80;2.88;;;;;;;;;;5052615;28;20044;-52
2022/04/13 11:36:51;;;;;;;6.22;2.97;;;;;;;;;;5035499;28;20052;-48
2022/04/13 11:39:50;;;;;;;6.00;3.10;;;;;;;;;;5052991;28;20036;-49
2022/04/13 11:42:35;;;;;;;9.02;3.03;;;;;;;;;;5051820;28;20108;-49
2022/04/13 11:45:21;;;;;;;5.20;2.95;;;;;;;;;;5051021;28;20412;-49
2022/04/13 11:48:08;;;;;;;8.30;3.35;;;;;;;;;;5046017;28;20045;-50
2022/04/13 11:51:13;;;;;;;5.63;2.38;;;;;;;;;;5052331;28;20126;-48
2022/04/13 11:54:07;;;;;;;4.85;2.35;;;;;;;;;;5052146;28;20475;-50
2022/04/13 11:56:56;;;;;;;7.15;3.00;;;;;;;;;;5052410;28;20462;-45
2022/04/13 11:59:45;;;;;;;7.13;2.83;;;;;;;;;;5052474;28;20044;-49
2022/04/13 12:02:31;;;;;;;8.15;3.17;;;;;;;;;;5053323;28;20045;-49
2022/04/13 12:05:15;;;;;;;6.32;3.05;;;;;;;;;;5052094;28;20040;-52
2022/04/13 12:08:00;;;;;;;8.90;3.63;;;;;;;;;;5049712;28;20041;-48
2022/04/13 12:10:48;;;;;;;5.38;2.65;;;;;;;;;;5053004;28;20095;-51
2022/04/13 12:13:45;;;;;;;6.07;2.72;;;;;;;;;;5051902;28;20493;-48
2022/04/13 12:16:30;;;;;;;12.10;3.28;;;;;;;;;;5051802;28;20041;-46
2022/04/13 12:19:15;;;;;;;6.55;2.72;;;;;;;;;;5051684;28;20037;-47
2022/04/13 12:22:00;;;;;;;7.70;2.60;;;;;;;;;;5051584;28;20041;-45
2022/04/13 12:25:16;;;;;;;8.75;2.65;;;;;;;;;;5039120;28;20057;-45
2022/04/13 12:28:02;;;;;;;7.55;3.30;;;;;;;;;;5049727;28;20057;-55
2022/04/13 12:31:00;;;;;;;6.93;3.33;;;;;;;;;;5044924;28;20037;-49
2022/04/13 12:33:45;;;;;;;5.97;3.03;;;;;;;;;;5049327;28;20472;-49
2022/04/13 12:36:30;;;;;;;7.07;2.38;;;;;;;;;;5051136;28;20048;-49
2022/04/13 12:39:14;;;;;;;7.57;2.80;;;;;;;;;;5049749;28;20395;-47
2022/04/13 12:42:01;;;;;;;5.95;2.53;;;;;;;;;;5051988;28;20057;-51
2022/04/13 12:44:46;;;;;;;7.35;2.28;;;;;;;;;;5051398;28;20099;-50
2022/04/13 12:47:31;;;;;;;5.40;1.92;;;;;;;;;;5052715;28;20043;-48
2022/04/13 12:50:15;;;;;;;6.38;2.70;;;;;;;;;;5051614;28;20381;-50
2022/04/13 12:53:00;;;;;;;5.70;2.10;;;;;;;;;;5052700;28;20044;-48
2022/04/13 12:55:56;;;;;;;5.90;2.30;;;;;;;;;;5052791;28;20041;-51
2022/04/13 12:58:41;;;;;;;5.55;2.78;;;;;;;;;;5051390;28;20051;-48
2022/04/13 13:01:28;;;;;;;4.97;2.25;;;;;;;;;;5052478;28;20485;-50
2022/04/13 13:04:14;;;;;;;7.38;2.20;;;;;;;;;;5052273;28;20094;-49
2022/04/13 13:07:04;;;;;;;7.07;2.60;;;;;;;;;;5052552;28;20049;-47
2022/04/13 13:09:52;;;;;;;8.30;2.78;;;;;;;;;;5052495;28;20049;-51
2022/04/13 13:12:36;;;;;;;6.40;2.75;;;;;;;;;;5037375;28;20041;-49
2022/04/13 13:15:47;;;;;;;7.05;2.70;;;;;;;;;;5052671;28;20056;-48
2022/04/13 13:18:32;;;;;;;4.05;2.00;;;;;;;;;;5052187;28;20484;-48
2022/04/13 13:21:17;;;;;;;6.30;2.55;;;;;;;;;;5051296;28;20045;-46
2022/04/13 13:24:01;;;;;;;5.32;2.22;;;;;;;;;;5052232;28;20037;-47
2022/04/13 13:26:48;;;;;;;4.63;2.30;;;;;;;;;;5052119;28;20099;-48
2022/04/13 13:29:41;;;;;;;4.93;2.83;;;;;;;;;;5050936;28;20049;-47
2022/04/13 13:32:28;;;;;;;3.50;1.75;;;;;;;;;;5036865;28;20151;-49
2022/04/13 13:35:13;;;;;;;5.78;2.17;;;;;;;;;;5052123;28;20041;-50
2022/04/13 13:38:07;;;;;;;6.22;2.28;;;;;;;;;;5051204;28;20041;-50
2022/04/13 13:40:53;;;;;;;5.90;2.58;;;;;;;;;;5052083;28;20064;-48
2022/04/13 13:43:41;;;;;;;4.80;2.30;;;;;;;;;;5050999;28;20546;-49
2022/04/13 13:46:25;;;;;;;8.90;2.35;;;;;;;;;;5051938;28;20055;-48
2022/04/13 13:49:10;;;;;;;4.07;2.28;;;;;;;;;;5052136;28;20110;-49
2022/04/13 13:51:54;;;;;;;5.30;2.38;;;;;;;;;;5052214;28;20045;-52
2022/04/13 13:54:39;;;;;;;6.47;2.10;;;;;;;;;;5051924;28;20489;-51
2022/04/13 13:57:24;;;;;;;4.95;2.70;;;;;;;;;;5055866;28;20045;-48
2022/04/13 14:00:09;;;;;;;4.70;2.53;;;;;;;;;;5052027;28;20037;-47
2022/04/13 14:02:53;;;;;;;4.38;2.30;;;;;;;;;;5052919;28;20037;-51
2022/04/13 14:05:39;;;;;;;5.97;1.67;;;;;;;;;;5049495;28;20503;-46
2022/04/13 14:08:23;;;;;;;5.72;2.95;;;;;;;;;;5060553;28;20038;-46
2022/04/13 14:11:08;;;;;;;5.78;2.45;;;;;;;;;;5053015;28;20107;-51
2022/04/13 14:13:53;;;;;;;7.15;2.25;;;;;;;;;;5054850;28;20041;-48
2022/04/13 14:16:37;;;;;;;5.22;2.80;;;;;;;;;;5053608;28;20041;-48
2022/04/13 14:19:22;;;;;;;7.07;2.45;;;;;;;;;;5055274;28;20037;-47
2022/04/13 14:22:06;;;;;;;6.40;2.90;;;;;;;;;;5052925;28;20045;-51
2022/04/13 14:24:51;;;;;;;6.05;3.22;;;;;;;;;;5035847;28;20068;-49
2022/04/13 14:27:37;;;;;;;8.30;2.70;;;;;;;;;;5047899;28;20065;-46
2022/04/13 14:30:22;;;;;;;3.80;1.92;;;;;;;;;;5041745;28;20051;-45
2022/04/13 14:33:06;;;;;;;9.82;2.63;;;;;;;;;;5039439;28;20623;-46
2022/04/13 14:35:51;;;;;;;8.38;2.42;;;;;;;;;;5046869;28;20155;-51
2022/04/13 14:38:36;;;;;;;6.70;2.45;;;;;;;;;;5039454;28;20048;-51
2022/04/13 14:41:20;;;;;;;6.63;3.38;;;;;;;;;;5049202;28;20040;-55
2022/04/13 14:44:05;;;;;;;7.22;2.80;;;;;;;;;;5042069;28;20148;-52
2022/04/13 14:46:49;;;;;;;5.20;2.55;;;;;;;;;;5070981;28;20041;-53
2022/04/13 14:49:34;;;;;;;5.75;2.42;;;;;;;;;;5049128;28;20568;-49
2022/04/13 14:52:19;;;;;;;6.60;2.70;;;;;;;;;;5046632;28;20042;-48
2022/04/13 14:55:04;;;;;;;7.60;2.42;;;;;;;;;;5048607;28;20051;-50
2022/04/13 14:57:49;;;;;;;8.38;3.03;;;;;;;;;;5047282;28;20219;-48
2022/04/13 15:00:34;;;;;;;3.50;2.10;;;;;;;;;;5053069;28;20083;-44
2022/04/13 15:03:18;;;;;;;8.00;2.80;;;;;;;;;;5053912;28;20121;-50
2022/04/13 15:06:04;;;;;;;6.75;2.50;;;;;;;;;;5053498;28;20440;-50
2022/04/13 15:08:48;;;;;;;9.55;3.63;;;;;;;;;;5051852;28;20041;-49
2022/04/13 15:11:34;;;;;;;7.88;3.55;;;;;;;;;;5047664;28;20037;-48
2022/04/13 15:14:18;;;;;;;6.00;2.58;;;;;;;;;;5054168;28;20481;-51
2022/04/13 15:17:03;;;;;;;6.70;3.50;;;;;;;;;;5053135;28;20634;-48
2022/04/13 15:19:47;;;;;;;9.18;3.10;;;;;;;;;;5052828;28;20404;-46
2022/04/13 15:22:33;;;;;;;6.13;3.38;;;;;;;;;;5053440;28;20048;-48
2022/04/13 15:25:18;;;;;;;5.70;3.42;;;;;;;;;;5052956;28;20067;-47
2022/04/13 15:28:03;;;;;;;8.20;3.20;;;;;;;;;;5041416;28;20045;-48
2022/04/13 15:30:56;;;;;;;7.00;2.67;;;;;;;;;;5036870;28;20056;-48
2022/04/13 15:33:42;;;;;;;7.88;3.08;;;;;;;;;;5033610;28;20100;-51
2022/04/13 15:36:27;;;;;;;4.43;2.42;;;;;;;;;;5034931;28;20045;-47
2022/04/13 15:39:12;;;;;;;7.22;2.83;;;;;;;;;;5033005;28;20041;-50
2022/04/13 15:41:57;;;;;;;5.90;3.00;;;;;;;;;;5033843;28;20045;-51
2022/04/13 15:44:41;;;;;;;4.05;2.10;;;;;;;;;;5033089;28;20049;-50
2022/04/13 15:47:26;;;;;;;4.05;2.40;;;;;;;;;;5032663;28;20049;-47
2022/04/13 15:50:11;;;;;;;8.75;2.70;;;;;;;;;;5033767;28;20472;-49
2022/04/13 15:52:57;;;;;;;6.18;3.22;;;;;;;;;;5032466;28;20048;-47
2022/04/13 15:55:42;;;;;;;5.97;2.83;;;;;;;;;;5033620;28;20042;-49
2022/04/13 15:58:26;;;;;;;7.20;3.15;;;;;;;;;;5033733;28;20037;-51
2022/04/13 16:01:11;;;;;;;5.63;3.13;;;;;;;;;;5033735;28;20053;-52
2022/04/13 16:03:56;;;;;;;5.97;2.65;;;;;;;;;;5048467;28;20112;-50
2022/04/13 16:06:41;;;;;;;6.95;2.90;;;;;;;;;;5053113;28;20086;-50
2022/04/13 16:09:25;;;;;;;6.20;2.95;;;;;;;;;;5059013;28;20067;-49
2022/04/13 16:12:10;;;;;;;6.15;2.80;;;;;;;;;;5053177;28;20049;-49
2022/04/13 16:14:54;;;;;;;5.55;2.70;;;;;;;;;;5053002;28;20043;-46
2022/04/13 16:17:39;;;;;;;5.22;2.60;;;;;;;;;;5051713;28;20053;-48
2022/04/13 16:20:25;;;;;;;8.20;2.90;;;;;;;;;;5056594;28;20036;-48
2022/04/13 16:23:12;;;;;;;4.70;2.38;;;;;;;;;;5037161;28;20037;-48
2022/04/13 16:25:57;;;;;;;4.93;2.33;;;;;;;;;;5051656;28;20064;-46
2022/04/13 16:28:43;;;;;;;4.95;2.50;;;;;;;;;;5052244;28;20049;-49